sensor_id;sensor_type;location;lat;lon;timestamp;P1;durP1;ratioP1;P2;durP2;ratioP2
31037;SDS011;17702;47.590;7.666;2022-08-19T00:00:00;12.70;;;11.50;;
31037;SDS011;17702;47.590;7.666;2022-08-19T00:02:26;12.05;;;10.85;;
31037;SDS011;17702;47.590;7.666;2022-08-19T00:04:52;11.93;;;10.77;;
31037;SDS011;17702;47.590;7.666;2022-08-19T00:07:18;12.75;;;11.63;;
31037;SDS011;17702;47.590;7.666;2022-08-19T00:09:44;12.25;;;11.13;;
31037;SDS011;17702;47.590;7.666;2022-08-19T00:12:10;12.25;;;11.20;;
31037;SDS011;17702;47.590;7.666;2022-08-19T00:14:36;12.20;;;11.10;;
31037;SDS011;17702;47.590;7.666;2022-08-19T00:17:03;13.27;;;11.90;;
31037;SDS011;17702;47.590;7.666;2022-08-19T00:19:31;12.25;;;11.15;;
31037;SDS011;17702;47.590;7.666;2022-08-19T00:21:57;12.55;;;11.18;;
31037;SDS011;17702;47.590;7.666;2022-08-19T00:24:23;11.95;;;10.88;;
31037;SDS011;17702;47.590;7.666;2022-08-19T00:26:49;11.68;;;10.70;;
31037;SDS011;17702;47.590;7.666;2022-08-19T00:29:16;12.80;;;10.82;;
31037;SDS011;17702;47.590;7.666;2022-08-19T00:31:44;11.43;;;10.30;;
31037;SDS011;17702;47.590;7.666;2022-08-19T00:34:11;16.95;;;10.07;;
31037;SDS011;17702;47.590;7.666;2022-08-19T00:36:37;11.13;;;10.32;;
31037;SDS011;17702;47.590;7.666;2022-08-19T00:39:04;11.25;;;10.32;;
31037;SDS011;17702;47.590;7.666;2022-08-19T00:41:30;11.13;;;10.02;;
31037;SDS011;17702;47.590;7.666;2022-08-19T00:44:00;11.32;;;10.15;;
31037;SDS011;17702;47.590;7.666;2022-08-19T00:46:26;10.98;;;9.98;;
31037;SDS011;17702;47.590;7.666;2022-08-19T00:48:53;11.32;;;10.25;;
31037;SDS011;17702;47.590;7.666;2022-08-19T00:51:20;11.95;;;10.95;;
31037;SDS011;17702;47.590;7.666;2022-08-19T00:53:47;12.25;;;11.05;;
31037;SDS011;17702;47.590;7.666;2022-08-19T00:56:12;12.05;;;10.95;;
31037;SDS011;17702;47.590;7.666;2022-08-19T00:58:38;11.95;;;10.82;;
31037;SDS011;17702;47.590;7.666;2022-08-19T01:01:04;11.68;;;10.68;;
31037;SDS011;17702;47.590;7.666;2022-08-19T01:03:30;13.13;;;12.02;;
31037;SDS011;17702;47.590;7.666;2022-08-19T01:05:56;13.57;;;12.27;;
31037;SDS011;17702;47.590;7.666;2022-08-19T01:08:21;13.55;;;12.27;;
31037;SDS011;17702;47.590;7.666;2022-08-19T01:10:49;14.13;;;12.70;;
31037;SDS011;17702;47.590;7.666;2022-08-19T01:13:19;13.25;;;12.15;;
31037;SDS011;17702;47.590;7.666;2022-08-19T01:15:50;14.05;;;12.45;;
31037;SDS011;17702;47.590;7.666;2022-08-19T01:18:21;13.05;;;11.85;;
31037;SDS011;17702;47.590;7.666;2022-08-19T01:20:48;13.55;;;12.35;;
31037;SDS011;17702;47.590;7.666;2022-08-19T01:23:14;12.88;;;11.63;;
31037;SDS011;17702;47.590;7.666;2022-08-19T01:25:45;14.02;;;12.57;;
31037;SDS011;17702;47.590;7.666;2022-08-19T01:28:22;13.85;;;12.55;;
31037;SDS011;17702;47.590;7.666;2022-08-19T01:30:53;14.02;;;12.73;;
31037;SDS011;17702;47.590;7.666;2022-08-19T01:33:20;15.35;;;12.23;;
31037;SDS011;17702;47.590;7.666;2022-08-19T01:35:46;14.30;;;12.93;;
31037;SDS011;17702;47.590;7.666;2022-08-19T01:38:20;13.48;;;12.23;;
31037;SDS011;17702;47.590;7.666;2022-08-19T01:40:51;15.32;;;13.70;;
31037;SDS011;17702;47.590;7.666;2022-08-19T01:43:17;14.93;;;13.30;;
31037;SDS011;17702;47.590;7.666;2022-08-19T01:45:44;15.68;;;14.13;;
31037;SDS011;17702;47.590;7.666;2022-08-19T01:48:11;14.63;;;13.43;;
31037;SDS011;17702;47.590;7.666;2022-08-19T01:50:37;15.55;;;13.93;;
31037;SDS011;17702;47.590;7.666;2022-08-19T01:53:04;15.07;;;13.68;;
31037;SDS011;17702;47.590;7.666;2022-08-19T01:55:32;15.32;;;13.93;;
31037;SDS011;17702;47.590;7.666;2022-08-19T01:58:02;14.50;;;13.00;;
31037;SDS011;17702;47.590;7.666;2022-08-19T02:00:30;14.52;;;13.02;;
31037;SDS011;17702;47.590;7.666;2022-08-19T02:02:57;15.15;;;13.45;;
31037;SDS011;17702;47.590;7.666;2022-08-19T02:05:23;14.07;;;12.70;;
31037;SDS011;17702;47.590;7.666;2022-08-19T02:07:49;14.13;;;12.88;;
31037;SDS011;17702;47.590;7.666;2022-08-19T02:10:17;14.57;;;13.23;;
31037;SDS011;17702;47.590;7.666;2022-08-19T02:12:44;14.68;;;13.48;;
31037;SDS011;17702;47.590;7.666;2022-08-19T02:15:10;15.02;;;13.63;;
31037;SDS011;17702;47.590;7.666;2022-08-19T02:17:36;14.27;;;13.00;;
31037;SDS011;17702;47.590;7.666;2022-08-19T02:20:02;16.98;;;13.57;;
31037;SDS011;17702;47.590;7.666;2022-08-19T02:22:29;14.02;;;12.68;;
31037;SDS011;17702;47.590;7.666;2022-08-19T02:24:55;15.05;;;13.48;;
31037;SDS011;17702;47.590;7.666;2022-08-19T02:27:21;14.38;;;13.10;;
31037;SDS011;17702;47.590;7.666;2022-08-19T02:29:48;14.68;;;13.23;;
31037;SDS011;17702;47.590;7.666;2022-08-19T02:32:14;14.00;;;12.68;;
31037;SDS011;17702;47.590;7.666;2022-08-19T02:34:40;14.48;;;13.07;;
31037;SDS011;17702;47.590;7.666;2022-08-19T02:37:06;14.50;;;13.20;;
31037;SDS011;17702;47.590;7.666;2022-08-19T02:39:52;13.15;;;12.07;;
31037;SDS011;17702;47.590;7.666;2022-08-19T02:42:18;13.25;;;11.98;;
31037;SDS011;17702;47.590;7.666;2022-08-19T02:44:43;12.82;;;11.75;;
31037;SDS011;17702;47.590;7.666;2022-08-19T02:47:09;13.25;;;11.43;;
31037;SDS011;17702;47.590;7.666;2022-08-19T02:49:35;12.93;;;11.82;;
31037;SDS011;17702;47.590;7.666;2022-08-19T02:52:01;13.18;;;11.85;;
31037;SDS011;17702;47.590;7.666;2022-08-19T02:54:27;13.07;;;11.82;;
31037;SDS011;17702;47.590;7.666;2022-08-19T02:56:53;12.60;;;11.52;;
31037;SDS011;17702;47.590;7.666;2022-08-19T02:59:19;11.88;;;10.75;;
31037;SDS011;17702;47.590;7.666;2022-08-19T03:01:45;13.38;;;11.52;;
31037;SDS011;17702;47.590;7.666;2022-08-19T03:04:12;13.43;;;12.15;;
31037;SDS011;17702;47.590;7.666;2022-08-19T03:06:42;12.30;;;11.18;;
31037;SDS011;17702;47.590;7.666;2022-08-19T03:09:10;13.25;;;12.05;;
31037;SDS011;17702;47.590;7.666;2022-08-19T03:11:36;12.32;;;11.13;;
31037;SDS011;17702;47.590;7.666;2022-08-19T03:14:03;12.25;;;11.05;;
31037;SDS011;17702;47.590;7.666;2022-08-19T03:16:32;12.50;;;11.48;;
31037;SDS011;17702;47.590;7.666;2022-08-19T03:19:00;12.68;;;11.52;;
31037;SDS011;17702;47.590;7.666;2022-08-19T03:21:28;13.73;;;12.32;;
31037;SDS011;17702;47.590;7.666;2022-08-19T03:23:57;12.52;;;11.38;;
31037;SDS011;17702;47.590;7.666;2022-08-19T03:26:24;10.27;;;9.57;;
31037;SDS011;17702;47.590;7.666;2022-08-19T03:28:50;10.27;;;9.48;;
31037;SDS011;17702;47.590;7.666;2022-08-19T03:31:17;10.73;;;9.82;;
31037;SDS011;17702;47.590;7.666;2022-08-19T03:33:45;9.85;;;9.00;;
31037;SDS011;17702;47.590;7.666;2022-08-19T03:36:15;10.25;;;9.45;;
31037;SDS011;17702;47.590;7.666;2022-08-19T03:38:47;9.88;;;9.02;;
31037;SDS011;17702;47.590;7.666;2022-08-19T03:41:23;10.18;;;9.25;;
31037;SDS011;17702;47.590;7.666;2022-08-19T03:43:52;8.20;;;7.50;;
31037;SDS011;17702;47.590;7.666;2022-08-19T03:46:20;10.95;;;7.78;;
31037;SDS011;17702;47.590;7.666;2022-08-19T03:48:47;7.50;;;7.03;;
31037;SDS011;17702;47.590;7.666;2022-08-19T03:51:21;7.72;;;7.13;;
31037;SDS011;17702;47.590;7.666;2022-08-19T03:56:16;7.40;;;6.88;;
31037;SDS011;17702;47.590;7.666;2022-08-19T03:58:41;8.52;;;7.72;;
31037;SDS011;17702;47.590;7.666;2022-08-19T04:01:08;8.35;;;7.53;;
31037;SDS011;17702;47.590;7.666;2022-08-19T04:03:35;7.22;;;6.72;;
31037;SDS011;17702;47.590;7.666;2022-08-19T04:08:48;7.05;;;6.55;;
31037;SDS011;17702;47.590;7.666;2022-08-19T04:11:17;7.47;;;6.88;;
31037;SDS011;17702;47.590;7.666;2022-08-19T04:13:48;8.10;;;7.13;;
31037;SDS011;17702;47.590;7.666;2022-08-19T04:16:16;7.78;;;7.05;;
31037;SDS011;17702;47.590;7.666;2022-08-19T04:18:43;7.57;;;7.00;;
31037;SDS011;17702;47.590;7.666;2022-08-19T04:21:14;9.98;;;7.38;;
31037;SDS011;17702;47.590;7.666;2022-08-19T04:23:42;7.60;;;7.00;;
31037;SDS011;17702;47.590;7.666;2022-08-19T04:26:12;7.88;;;7.07;;
31037;SDS011;17702;47.590;7.666;2022-08-19T04:28:43;8.10;;;7.20;;
31037;SDS011;17702;47.590;7.666;2022-08-19T04:31:16;7.43;;;6.93;;
31037;SDS011;17702;47.590;7.666;2022-08-19T04:33:46;7.53;;;7.03;;
31037;SDS011;17702;47.590;7.666;2022-08-19T04:36:18;7.82;;;7.32;;
31037;SDS011;17702;47.590;7.666;2022-08-19T04:38:55;7.78;;;7.18;;
31037;SDS011;17702;47.590;7.666;2022-08-19T04:41:22;8.00;;;6.97;;
31037;SDS011;17702;47.590;7.666;2022-08-19T04:44:08;7.53;;;6.93;;
31037;SDS011;17702;47.590;7.666;2022-08-19T04:46:34;9.23;;;7.00;;
31037;SDS011;17702;47.590;7.666;2022-08-19T04:49:00;9.05;;;8.32;;
31037;SDS011;17702;47.590;7.666;2022-08-19T04:51:29;8.43;;;7.57;;
31037;SDS011;17702;47.590;7.666;2022-08-19T04:53:56;9.43;;;7.90;;
31037;SDS011;17702;47.590;7.666;2022-08-19T04:56:22;7.43;;;6.93;;
31037;SDS011;17702;47.590;7.666;2022-08-19T04:58:51;9.00;;;7.43;;
31037;SDS011;17702;47.590;7.666;2022-08-19T05:01:20;9.05;;;8.23;;
31037;SDS011;17702;47.590;7.666;2022-08-19T05:03:48;9.85;;;8.90;;
31037;SDS011;17702;47.590;7.666;2022-08-19T05:06:14;12.13;;;8.07;;
31037;SDS011;17702;47.590;7.666;2022-08-19T05:08:43;8.15;;;7.43;;
31037;SDS011;17702;47.590;7.666;2022-08-19T05:11:24;8.38;;;7.57;;
31037;SDS011;17702;47.590;7.666;2022-08-19T05:13:51;7.97;;;7.38;;
31037;SDS011;17702;47.590;7.666;2022-08-19T05:16:18;9.20;;;8.45;;
31037;SDS011;17702;47.590;7.666;2022-08-19T05:18:46;9.25;;;8.65;;
31037;SDS011;17702;47.590;7.666;2022-08-19T05:21:31;8.38;;;7.78;;
31037;SDS011;17702;47.590;7.666;2022-08-19T05:24:17;9.00;;;8.32;;
31037;SDS011;17702;47.590;7.666;2022-08-19T05:26:44;9.60;;;8.52;;
31037;SDS011;17702;47.590;7.666;2022-08-19T05:29:13;9.65;;;8.82;;
31037;SDS011;17702;47.590;7.666;2022-08-19T05:31:42;10.70;;;9.65;;
31037;SDS011;17702;47.590;7.666;2022-08-19T05:34:08;9.95;;;9.25;;
31037;SDS011;17702;47.590;7.666;2022-08-19T05:36:35;17.98;;;10.35;;
31037;SDS011;17702;47.590;7.666;2022-08-19T05:39:07;12.15;;;10.30;;
31037;SDS011;17702;47.590;7.666;2022-08-19T05:41:35;10.63;;;9.63;;
31037;SDS011;17702;47.590;7.666;2022-08-19T05:44:02;10.70;;;9.70;;
31037;SDS011;17702;47.590;7.666;2022-08-19T05:46:31;12.60;;;9.80;;
31037;SDS011;17702;47.590;7.666;2022-08-19T05:48:57;10.18;;;9.38;;
31037;SDS011;17702;47.590;7.666;2022-08-19T05:51:24;9.70;;;8.88;;
31037;SDS011;17702;47.590;7.666;2022-08-19T05:53:50;11.23;;;9.50;;
31037;SDS011;17702;47.590;7.666;2022-08-19T05:56:16;10.70;;;9.48;;
31037;SDS011;17702;47.590;7.666;2022-08-19T05:58:43;10.23;;;9.35;;
31037;SDS011;17702;47.590;7.666;2022-08-19T06:03:54;9.85;;;9.18;;
31037;SDS011;17702;47.590;7.666;2022-08-19T06:06:20;10.95;;;10.00;;
31037;SDS011;17702;47.590;7.666;2022-08-19T06:08:46;10.57;;;9.65;;
31037;SDS011;17702;47.590;7.666;2022-08-19T06:13:43;11.70;;;10.70;;
31037;SDS011;17702;47.590;7.666;2022-08-19T06:16:12;11.98;;;9.30;;
31037;SDS011;17702;47.590;7.666;2022-08-19T06:18:44;11.52;;;10.13;;
31037;SDS011;17702;47.590;7.666;2022-08-19T06:21:10;11.48;;;10.40;;
31037;SDS011;17702;47.590;7.666;2022-08-19T06:23:35;10.98;;;10.18;;
31037;SDS011;17702;47.590;7.666;2022-08-19T06:26:01;11.60;;;10.50;;
31037;SDS011;17702;47.590;7.666;2022-08-19T06:28:26;12.07;;;10.98;;
31037;SDS011;17702;47.590;7.666;2022-08-19T06:30:52;11.98;;;10.93;;
31037;SDS011;17702;47.590;7.666;2022-08-19T06:33:18;12.05;;;11.05;;
31037;SDS011;17702;47.590;7.666;2022-08-19T06:35:43;11.13;;;10.18;;
31037;SDS011;17702;47.590;7.666;2022-08-19T06:38:09;11.15;;;10.30;;
31037;SDS011;17702;47.590;7.666;2022-08-19T06:40:35;12.88;;;11.55;;
31037;SDS011;17702;47.590;7.666;2022-08-19T06:43:02;12.15;;;11.02;;
31037;SDS011;17702;47.590;7.666;2022-08-19T06:45:28;12.45;;;11.45;;
31037;SDS011;17702;47.590;7.666;2022-08-19T06:47:54;13.02;;;11.73;;
31037;SDS011;17702;47.590;7.666;2022-08-19T06:50:20;13.02;;;11.85;;
31037;SDS011;17702;47.590;7.666;2022-08-19T06:52:47;18.55;;;12.20;;
31037;SDS011;17702;47.590;7.666;2022-08-19T06:55:13;13.30;;;12.10;;
31037;SDS011;17702;47.590;7.666;2022-08-19T06:57:40;13.45;;;12.25;;
31037;SDS011;17702;47.590;7.666;2022-08-19T07:00:07;13.55;;;12.45;;
31037;SDS011;17702;47.590;7.666;2022-08-19T07:02:36;15.88;;;14.27;;
31037;SDS011;17702;47.590;7.666;2022-08-19T07:05:02;14.85;;;12.55;;
31037;SDS011;17702;47.590;7.666;2022-08-19T07:07:29;16.38;;;13.07;;
31037;SDS011;17702;47.590;7.666;2022-08-19T07:09:56;14.75;;;13.30;;
31037;SDS011;17702;47.590;7.666;2022-08-19T07:12:22;14.82;;;13.43;;
31037;SDS011;17702;47.590;7.666;2022-08-19T07:14:47;13.80;;;12.57;;
31037;SDS011;17702;47.590;7.666;2022-08-19T07:17:14;13.60;;;12.50;;
31037;SDS011;17702;47.590;7.666;2022-08-19T07:19:40;16.10;;;14.43;;
31037;SDS011;17702;47.590;7.666;2022-08-19T07:22:08;15.07;;;13.68;;
31037;SDS011;17702;47.590;7.666;2022-08-19T07:24:35;16.77;;;15.00;;
31037;SDS011;17702;47.590;7.666;2022-08-19T07:27:02;15.15;;;13.65;;
31037;SDS011;17702;47.590;7.666;2022-08-19T07:29:29;14.95;;;13.63;;
31037;SDS011;17702;47.590;7.666;2022-08-19T07:31:58;16.83;;;15.15;;
31037;SDS011;17702;47.590;7.666;2022-08-19T07:34:25;15.82;;;14.32;;
31037;SDS011;17702;47.590;7.666;2022-08-19T07:36:52;15.77;;;14.15;;
31037;SDS011;17702;47.590;7.666;2022-08-19T07:39:20;15.40;;;13.77;;
31037;SDS011;17702;47.590;7.666;2022-08-19T07:41:54;15.40;;;13.88;;
31037;SDS011;17702;47.590;7.666;2022-08-19T07:44:20;16.08;;;14.27;;
31037;SDS011;17702;47.590;7.666;2022-08-19T07:46:49;15.38;;;13.55;;
31037;SDS011;17702;47.590;7.666;2022-08-19T07:49:17;17.75;;;15.27;;
31037;SDS011;17702;47.590;7.666;2022-08-19T07:51:51;15.40;;;14.00;;
31037;SDS011;17702;47.590;7.666;2022-08-19T07:54:19;17.48;;;15.10;;
31037;SDS011;17702;47.590;7.666;2022-08-19T07:56:45;17.63;;;15.82;;
31037;SDS011;17702;47.590;7.666;2022-08-19T07:59:11;17.58;;;14.88;;
31037;SDS011;17702;47.590;7.666;2022-08-19T08:01:37;16.67;;;14.98;;
31037;SDS011;17702;47.590;7.666;2022-08-19T08:04:04;16.48;;;14.82;;
31037;SDS011;17702;47.590;7.666;2022-08-19T08:06:50;16.60;;;15.02;;
31037;SDS011;17702;47.590;7.666;2022-08-19T08:09:37;18.48;;;15.98;;
31037;SDS011;17702;47.590;7.666;2022-08-19T08:12:09;17.15;;;15.35;;
31037;SDS011;17702;47.590;7.666;2022-08-19T08:14:41;17.50;;;15.32;;
31037;SDS011;17702;47.590;7.666;2022-08-19T08:17:07;18.38;;;15.10;;
31037;SDS011;17702;47.590;7.666;2022-08-19T08:19:35;18.35;;;16.55;;
31037;SDS011;17702;47.590;7.666;2022-08-19T08:22:02;17.80;;;16.00;;
31037;SDS011;17702;47.590;7.666;2022-08-19T08:24:29;17.50;;;15.77;;
31037;SDS011;17702;47.590;7.666;2022-08-19T08:26:59;18.30;;;16.38;;
31037;SDS011;17702;47.590;7.666;2022-08-19T08:29:26;23.67;;;21.27;;
31037;SDS011;17702;47.590;7.666;2022-08-19T08:31:54;20.15;;;17.73;;
31037;SDS011;17702;47.590;7.666;2022-08-19T08:34:20;20.27;;;17.65;;
31037;SDS011;17702;47.590;7.666;2022-08-19T08:36:46;20.27;;;18.27;;
31037;SDS011;17702;47.590;7.666;2022-08-19T08:39:13;21.10;;;18.92;;
31037;SDS011;17702;47.590;7.666;2022-08-19T08:44:30;23.00;;;20.60;;
31037;SDS011;17702;47.590;7.666;2022-08-19T08:47:09;21.42;;;18.60;;
31037;SDS011;17702;47.590;7.666;2022-08-19T08:52:26;20.98;;;17.90;;
31037;SDS011;17702;47.590;7.666;2022-08-19T08:54:55;32.25;;;27.83;;
31037;SDS011;17702;47.590;7.666;2022-08-19T09:00:00;20.52;;;18.42;;
31037;SDS011;17702;47.590;7.666;2022-08-19T09:02:31;20.90;;;18.80;;
31037;SDS011;17702;47.590;7.666;2022-08-19T09:04:57;20.55;;;18.45;;
31037;SDS011;17702;47.590;7.666;2022-08-19T09:10:20;20.13;;;17.83;;
31037;SDS011;17702;47.590;7.666;2022-08-19T09:15:53;21.48;;;19.17;;
31037;SDS011;17702;47.590;7.666;2022-08-19T09:18:23;22.42;;;18.75;;
31037;SDS011;17702;47.590;7.666;2022-08-19T09:20:48;24.05;;;20.27;;
31037;SDS011;17702;47.590;7.666;2022-08-19T09:23:14;23.58;;;20.80;;
31037;SDS011;17702;47.590;7.666;2022-08-19T09:25:41;22.30;;;18.00;;
31037;SDS011;17702;47.590;7.666;2022-08-19T09:28:07;23.48;;;19.48;;
31037;SDS011;17702;47.590;7.666;2022-08-19T09:30:34;23.30;;;19.67;;
31037;SDS011;17702;47.590;7.666;2022-08-19T09:33:05;23.33;;;20.85;;
31037;SDS011;17702;47.590;7.666;2022-08-19T09:35:31;25.65;;;20.63;;
31037;SDS011;17702;47.590;7.666;2022-08-19T09:37:58;27.60;;;19.95;;
31037;SDS011;17702;47.590;7.666;2022-08-19T09:40:28;25.40;;;19.85;;
31037;SDS011;17702;47.590;7.666;2022-08-19T09:42:55;24.23;;;20.75;;
31037;SDS011;17702;47.590;7.666;2022-08-19T09:45:22;26.33;;;22.80;;
31037;SDS011;17702;47.590;7.666;2022-08-19T09:47:51;24.75;;;20.40;;
31037;SDS011;17702;47.590;7.666;2022-08-19T09:50:18;25.10;;;21.60;;
31037;SDS011;17702;47.590;7.666;2022-08-19T09:52:44;24.38;;;21.77;;
31037;SDS011;17702;47.590;7.666;2022-08-19T09:55:11;25.35;;;21.60;;
31037;SDS011;17702;47.590;7.666;2022-08-19T09:57:37;23.95;;;21.58;;
31037;SDS011;17702;47.590;7.666;2022-08-19T10:00:04;25.77;;;21.52;;
31037;SDS011;17702;47.590;7.666;2022-08-19T10:02:32;26.52;;;22.52;;
31037;SDS011;17702;47.590;7.666;2022-08-19T10:04:58;26.30;;;23.25;;
31037;SDS011;17702;47.590;7.666;2022-08-19T10:07:42;24.42;;;21.83;;
31037;SDS011;17702;47.590;7.666;2022-08-19T10:10:08;42.00;;;34.53;;
31037;SDS011;17702;47.590;7.666;2022-08-19T10:12:34;32.38;;;28.63;;
31037;SDS011;17702;47.590;7.666;2022-08-19T10:15:00;28.65;;;23.05;;
31037;SDS011;17702;47.590;7.666;2022-08-19T10:17:26;25.85;;;22.85;;
31037;SDS011;17702;47.590;7.666;2022-08-19T10:19:52;26.75;;;22.83;;
31037;SDS011;17702;47.590;7.666;2022-08-19T10:22:18;29.17;;;23.08;;
31037;SDS011;17702;47.590;7.666;2022-08-19T10:24:47;29.10;;;24.35;;
31037;SDS011;17702;47.590;7.666;2022-08-19T10:27:12;31.30;;;25.00;;
31037;SDS011;17702;47.590;7.666;2022-08-19T10:29:39;28.58;;;23.95;;
31037;SDS011;17702;47.590;7.666;2022-08-19T10:32:06;32.67;;;25.13;;
31037;SDS011;17702;47.590;7.666;2022-08-19T10:34:33;26.00;;;23.20;;
31037;SDS011;17702;47.590;7.666;2022-08-19T10:37:01;27.88;;;24.88;;
31037;SDS011;17702;47.590;7.666;2022-08-19T10:39:30;27.83;;;24.27;;
31037;SDS011;17702;47.590;7.666;2022-08-19T10:41:58;39.13;;;25.55;;
31037;SDS011;17702;47.590;7.666;2022-08-19T10:44:24;37.58;;;24.60;;
31037;SDS011;17702;47.590;7.666;2022-08-19T10:46:50;29.92;;;25.38;;
31037;SDS011;17702;47.590;7.666;2022-08-19T10:49:17;28.60;;;23.95;;
31037;SDS011;17702;47.590;7.666;2022-08-19T10:51:44;27.88;;;24.42;;
31037;SDS011;17702;47.590;7.666;2022-08-19T10:54:28;29.67;;;24.30;;
31037;SDS011;17702;47.590;7.666;2022-08-19T10:57:13;28.17;;;24.00;;
31037;SDS011;17702;47.590;7.666;2022-08-19T10:59:40;27.67;;;24.77;;
31037;SDS011;17702;47.590;7.666;2022-08-19T11:02:07;33.10;;;26.17;;
31037;SDS011;17702;47.590;7.666;2022-08-19T11:04:38;33.10;;;25.88;;
31037;SDS011;17702;47.590;7.666;2022-08-19T11:07:04;36.33;;;26.25;;
31037;SDS011;17702;47.590;7.666;2022-08-19T11:09:31;30.92;;;25.95;;
31037;SDS011;17702;47.590;7.666;2022-08-19T11:12:04;30.40;;;26.30;;
31037;SDS011;17702;47.590;7.666;2022-08-19T11:14:30;36.42;;;26.73;;
31037;SDS011;17702;47.590;7.666;2022-08-19T11:16:57;29.15;;;26.05;;
31037;SDS011;17702;47.590;7.666;2022-08-19T11:19:23;33.90;;;25.38;;
31037;SDS011;17702;47.590;7.666;2022-08-19T11:21:49;29.20;;;26.02;;
31037;SDS011;17702;47.590;7.666;2022-08-19T11:24:18;31.55;;;25.70;;
31037;SDS011;17702;47.590;7.666;2022-08-19T11:26:45;30.38;;;27.08;;
31037;SDS011;17702;47.590;7.666;2022-08-19T11:29:14;31.77;;;27.45;;
31037;SDS011;17702;47.590;7.666;2022-08-19T11:31:42;33.20;;;27.42;;
31037;SDS011;17702;47.590;7.666;2022-08-19T11:34:11;34.00;;;28.92;;
31037;SDS011;17702;47.590;7.666;2022-08-19T11:36:39;37.88;;;29.98;;
31037;SDS011;17702;47.590;7.666;2022-08-19T11:39:08;34.33;;;29.95;;
31037;SDS011;17702;47.590;7.666;2022-08-19T11:41:35;35.63;;;31.85;;
31037;SDS011;17702;47.590;7.666;2022-08-19T11:44:01;40.47;;;31.73;;
31037;SDS011;17702;47.590;7.666;2022-08-19T11:46:29;39.85;;;33.17;;
31037;SDS011;17702;47.590;7.666;2022-08-19T11:48:56;40.40;;;34.83;;
31037;SDS011;17702;47.590;7.666;2022-08-19T11:51:23;42.20;;;34.97;;
31037;SDS011;17702;47.590;7.666;2022-08-19T11:53:51;40.05;;;33.45;;
31037;SDS011;17702;47.590;7.666;2022-08-19T11:56:19;40.97;;;33.70;;
31037;SDS011;17702;47.590;7.666;2022-08-19T11:58:45;43.45;;;35.70;;
31037;SDS011;17702;47.590;7.666;2022-08-19T12:01:12;46.13;;;35.60;;
31037;SDS011;17702;47.590;7.666;2022-08-19T12:03:42;42.10;;;34.22;;
31037;SDS011;17702;47.590;7.666;2022-08-19T12:06:20;43.70;;;35.83;;
31037;SDS011;17702;47.590;7.666;2022-08-19T12:08:50;43.78;;;35.17;;
31037;SDS011;17702;47.590;7.666;2022-08-19T12:11:16;41.38;;;34.90;;
31037;SDS011;17702;47.590;7.666;2022-08-19T12:13:42;37.28;;;33.20;;
31037;SDS011;17702;47.590;7.666;2022-08-19T12:16:12;40.90;;;34.92;;
31037;SDS011;17702;47.590;7.666;2022-08-19T12:18:45;43.40;;;34.97;;
31037;SDS011;17702;47.590;7.666;2022-08-19T12:21:12;44.28;;;35.28;;
31037;SDS011;17702;47.590;7.666;2022-08-19T12:23:40;41.88;;;36.40;;
31037;SDS011;17702;47.590;7.666;2022-08-19T12:26:06;43.40;;;35.78;;
31037;SDS011;17702;47.590;7.666;2022-08-19T12:28:33;49.55;;;37.55;;
31037;SDS011;17702;47.590;7.666;2022-08-19T12:30:59;45.67;;;35.10;;
31037;SDS011;17702;47.590;7.666;2022-08-19T12:33:25;49.13;;;36.00;;
31037;SDS011;17702;47.590;7.666;2022-08-19T12:35:53;47.67;;;36.30;;
31037;SDS011;17702;47.590;7.666;2022-08-19T12:38:18;44.08;;;36.28;;
31037;SDS011;17702;47.590;7.666;2022-08-19T12:40:47;45.17;;;35.63;;
31037;SDS011;17702;47.590;7.666;2022-08-19T12:43:14;44.75;;;37.38;;
31037;SDS011;17702;47.590;7.666;2022-08-19T12:45:41;46.33;;;37.10;;
31037;SDS011;17702;47.590;7.666;2022-08-19T12:48:07;46.58;;;36.70;;
31037;SDS011;17702;47.590;7.666;2022-08-19T12:50:33;45.30;;;35.80;;
31037;SDS011;17702;47.590;7.666;2022-08-19T12:52:59;46.22;;;38.58;;
31037;SDS011;17702;47.590;7.666;2022-08-19T12:55:25;46.70;;;35.78;;
31037;SDS011;17702;47.590;7.666;2022-08-19T12:57:53;46.63;;;37.03;;
31037;SDS011;17702;47.590;7.666;2022-08-19T13:00:19;50.75;;;37.95;;
31037;SDS011;17702;47.590;7.666;2022-08-19T13:02:47;53.97;;;40.28;;
31037;SDS011;17702;47.590;7.666;2022-08-19T13:05:25;48.15;;;40.17;;
31037;SDS011;17702;47.590;7.666;2022-08-19T13:07:53;47.05;;;37.03;;
31037;SDS011;17702;47.590;7.666;2022-08-19T13:10:21;48.10;;;36.85;;
31037;SDS011;17702;47.590;7.666;2022-08-19T13:12:49;43.50;;;35.60;;
31037;SDS011;17702;47.590;7.666;2022-08-19T13:15:16;44.42;;;37.03;;
31037;SDS011;17702;47.590;7.666;2022-08-19T13:17:45;61.38;;;40.78;;
31037;SDS011;17702;47.590;7.666;2022-08-19T13:20:16;57.45;;;40.88;;
31037;SDS011;17702;47.590;7.666;2022-08-19T13:22:44;51.97;;;39.83;;
31037;SDS011;17702;47.590;7.666;2022-08-19T13:25:11;51.80;;;40.30;;
31037;SDS011;17702;47.590;7.666;2022-08-19T13:27:37;52.38;;;39.53;;
31037;SDS011;17702;47.590;7.666;2022-08-19T13:30:04;51.55;;;39.90;;
31037;SDS011;17702;47.590;7.666;2022-08-19T13:32:50;49.58;;;39.33;;
31037;SDS011;17702;47.590;7.666;2022-08-19T13:35:34;49.88;;;38.70;;
31037;SDS011;17702;47.590;7.666;2022-08-19T13:37:59;49.03;;;39.80;;
31037;SDS011;17702;47.590;7.666;2022-08-19T13:40:30;54.25;;;40.85;;
31037;SDS011;17702;47.590;7.666;2022-08-19T13:42:58;48.10;;;40.17;;
31037;SDS011;17702;47.590;7.666;2022-08-19T13:45:26;49.55;;;39.22;;
31037;SDS011;17702;47.590;7.666;2022-08-19T13:47:54;53.92;;;38.50;;
31037;SDS011;17702;47.590;7.666;2022-08-19T13:50:22;47.85;;;37.50;;
31037;SDS011;17702;47.590;7.666;2022-08-19T13:52:50;45.60;;;35.78;;
31037;SDS011;17702;47.590;7.666;2022-08-19T13:55:17;35.60;;;31.73;;
31037;SDS011;17702;47.590;7.666;2022-08-19T13:57:43;38.13;;;31.80;;
31037;SDS011;17702;47.590;7.666;2022-08-19T14:00:10;36.05;;;29.40;;
31037;SDS011;17702;47.590;7.666;2022-08-19T14:02:40;37.58;;;31.38;;
31037;SDS011;17702;47.590;7.666;2022-08-19T14:05:08;35.38;;;31.58;;
31037;SDS011;17702;47.590;7.666;2022-08-19T14:07:35;35.47;;;31.67;;
31037;SDS011;17702;47.590;7.666;2022-08-19T14:10:01;38.15;;;32.42;;
31037;SDS011;17702;47.590;7.666;2022-08-19T14:12:28;39.67;;;32.85;;
31037;SDS011;17702;47.590;7.666;2022-08-19T14:14:54;40.75;;;33.15;;
31037;SDS011;17702;47.590;7.666;2022-08-19T14:17:19;36.67;;;32.78;;
31037;SDS011;17702;47.590;7.666;2022-08-19T14:19:46;33.88;;;30.25;;
31037;SDS011;17702;47.590;7.666;2022-08-19T14:22:12;38.03;;;32.92;;
31037;SDS011;17702;47.590;7.666;2022-08-19T14:24:38;38.13;;;33.35;;
31037;SDS011;17702;47.590;7.666;2022-08-19T14:27:06;35.85;;;32.05;;
31037;SDS011;17702;47.590;7.666;2022-08-19T14:29:33;36.20;;;32.47;;
31037;SDS011;17702;47.590;7.666;2022-08-19T14:31:59;38.90;;;33.22;;
31037;SDS011;17702;47.590;7.666;2022-08-19T14:34:25;34.25;;;30.63;;
31037;SDS011;17702;47.590;7.666;2022-08-19T14:36:51;33.58;;;29.98;;
31037;SDS011;17702;47.590;7.666;2022-08-19T14:39:17;31.33;;;28.13;;
31037;SDS011;17702;47.590;7.666;2022-08-19T14:41:43;31.55;;;28.40;;
31037;SDS011;17702;47.590;7.666;2022-08-19T14:44:10;33.60;;;30.10;;
31037;SDS011;17702;47.590;7.666;2022-08-19T14:46:38;31.00;;;27.95;;
31037;SDS011;17702;47.590;7.666;2022-08-19T14:49:03;32.13;;;28.58;;
31037;SDS011;17702;47.590;7.666;2022-08-19T14:51:29;30.75;;;27.65;;
31037;SDS011;17702;47.590;7.666;2022-08-19T14:53:55;34.97;;;31.17;;